Terminal Aerodrome Forecast
Issued by NWS

Home | Current Version | Previous Version | Graphics & Text | Print | Product List | Glossary On
Versions: 1 2 3 4 5 6 7 8 9 10 11 12 13 14 15
000
FTUS43 KMPX 111136
TAFRNH
TAF
KRNH 111136Z 1112/1212 17005KT 3SM -SNPL SCT008 OVC035
     FM111400 26006KT P6SM VCSH OVC035
     FM111700 33013G20KT P6SM OVC012
     FM112000 33018G28KT P6SM BKN025
     FM120100 32015G26KT P6SM FEW030
     FM120600 31009KT P6SM SKC=

USA.gov is the U.S. government's official web portal to all federal, state and local government web resources and services.